LPMA

Details ICAO LPMA (FNC)
Name Madeira/Funchal - Cristiano Ronaldo
Region Portugal
Timezone Atlantic/Madeira (UTC+0.0)
Plans Departing 2297
Arriving 3713
Stats Elevation 189 ft / 58 m (AMSL)
Location 32.697900° -16.774400°
Runways 1
Magnetic Variation 4.736° W
Sunrise 2019-12-12 08:01:00 UTC / 2019-12-12 08:01:00 Local
Sunset 2019-12-12 18:03:05 UTC / 2019-12-12 18:03:05 Local
Advertisement - Login to hide

Runways

ID Width Length Bearing (true/mag) Surface Threshold Overrun Markings Lighting
05 148 ft / 45 m 9,133 ft / 2,784 m 44.60° / 49.33° ASPHALT 482 ft / 147 m 0 ft / 0 m PREC-APP CENTERLINE EDGE THRESHOLD TDZ REIL-OMNI
23 148 ft / 45 m 9,133 ft / 2,784 m 224.61° / 229.34° ASPHALT 482 ft / 147 m 0 ft / 0 m PREC-APP CENTERLINE EDGE THRESHOLD TDZ REIL-OMNI

Map

Weather


0- 5 10 15 20 25 30 35+ Temperature / °C

Clouds and Precipitation
Forecast for 2019-12-12 18:00 UTC. Updated 3 hours ago

Ground ~20,000 ft ~40,000 ft Winds

METAR

LPMA 121830Z 01015KT 9999 BKN016 17/09 Q1031

TAF

TAF LPMA 121700Z 1218/1318 02015KT 9999 SCT015 SCT030 TEMPO 1218/1318 BKN015 TEMPO 1218/1221 02018G30KT BECMG 1300/1302 36008KT

Frequencies

Recorded 124.40 MHz ATIS
Approach 119.60 MHz
Tower 118.35 MHz
Approach 119.20 MHz
Warning: Do not use this data for real-world aviation or navigation. No guarantee of current accuracy is given.